createdAt,value
2018-12-14T00:01:39.447Z,86.95
2018-12-14T00:04:10.723Z,86.94
2018-12-14T00:06:41.625Z,86.83
2018-12-14T00:09:13.487Z,86.76
2018-12-14T00:11:45.616Z,86.81
2018-12-14T00:14:13.990Z,86.82
2018-12-14T00:16:44.268Z,86.71
2018-12-14T00:19:14.004Z,86.51
2018-12-14T00:21:46.930Z,86.60
2018-12-14T00:24:17.496Z,86.35
2018-12-14T00:26:47.429Z,86.18
2018-12-14T00:29:23.483Z,86.08
2018-12-14T00:31:57.509Z,86.06
2018-12-14T00:34:24.828Z,86.18
2018-12-14T00:36:55.846Z,86.15
2018-12-14T00:39:26.712Z,86.28
2018-12-14T00:42:04.104Z,86.25
2018-12-14T00:44:37.295Z,86.02
2018-12-14T00:47:08.554Z,85.92
2018-12-14T00:49:39.531Z,85.98
2018-12-14T00:52:10.101Z,86.00
2018-12-14T00:54:42.005Z,85.86
2018-12-14T00:57:17.412Z,86.01
2018-12-14T00:59:47.363Z,85.99
2018-12-14T01:02:29.338Z,85.80
2018-12-14T01:04:59.657Z,85.54
2018-12-14T01:07:29.715Z,85.67
2018-12-14T01:10:01.743Z,85.63
2018-12-14T01:12:32.197Z,85.53
2018-12-14T01:15:02.724Z,85.31
2018-12-14T01:17:34.567Z,85.20
2018-12-14T01:20:05.033Z,85.32
2018-12-14T01:22:38.053Z,85.52
2018-12-14T01:25:10.637Z,85.69
2018-12-14T01:27:41.105Z,85.51
2018-12-14T01:30:11.235Z,85.46
2018-12-14T01:32:41.631Z,85.38
2018-12-14T01:35:11.785Z,85.36
2018-12-14T01:37:41.766Z,85.34
2018-12-14T01:40:12.287Z,85.26
2018-12-14T01:42:45.896Z,85.32
2018-12-14T01:45:18.421Z,85.13
2018-12-14T01:47:48.437Z,85.02
2018-12-14T01:50:18.417Z,85.14
2018-12-14T01:52:48.267Z,84.98
2018-12-14T01:55:18.441Z,84.65
2018-12-14T01:57:48.669Z,84.60
2018-12-14T02:00:18.407Z,84.43
2018-12-14T02:02:48.507Z,84.67
2018-12-14T02:05:18.729Z,84.28
2018-12-14T02:07:48.733Z,84.12
2018-12-14T02:10:19.149Z,84.26
2018-12-14T02:12:51.583Z,84.37
2018-12-14T02:15:21.564Z,84.25
2018-12-14T02:17:51.407Z,84.19
2018-12-14T02:20:21.313Z,84.40
2018-12-14T02:22:56.470Z,84.43
2018-12-14T02:25:26.409Z,83.98
2018-12-14T02:27:56.469Z,84.06
2018-12-14T02:30:53.009Z,84.10
2018-12-14T02:33:23.435Z,84.18
2018-12-14T02:35:56.689Z,84.43
2018-12-14T02:38:26.995Z,84.56
2018-12-14T02:41:00.159Z,84.62
2018-12-14T02:43:30.605Z,84.63
2018-12-14T02:46:01.626Z,84.75
2018-12-14T02:48:32.089Z,84.95
2018-12-14T02:51:03.910Z,84.87
2018-12-14T02:53:34.380Z,84.85
2018-12-14T02:56:05.282Z,84.87
2018-12-14T02:58:38.279Z,85.00
2018-12-14T03:01:09.211Z,84.80
2018-12-14T03:03:42.086Z,85.00
2018-12-14T03:06:12.341Z,84.87
2018-12-14T03:08:42.537Z,84.48
2018-12-14T03:11:13.267Z,84.74
2018-12-14T03:13:43.493Z,84.83
2018-12-14T03:16:13.774Z,84.72
2018-12-14T03:18:44.552Z,84.69
2018-12-14T03:21:14.723Z,84.57
2018-12-14T03:23:44.787Z,84.74
2018-12-14T03:26:15.222Z,84.81
2018-12-14T03:28:45.244Z,84.30
2018-12-14T03:31:15.474Z,84.43
2018-12-14T03:33:48.453Z,84.42
2018-12-14T03:36:18.906Z,84.53
2018-12-14T03:38:49.814Z,84.57
2018-12-14T03:41:20.044Z,84.37
2018-12-14T03:43:50.052Z,84.42
2018-12-14T03:46:21.416Z,84.32
2018-12-14T03:48:51.647Z,84.42
2018-12-14T03:51:28.830Z,84.49
2018-12-14T03:53:59.168Z,84.27
2018-12-14T03:56:29.687Z,84.18
2018-12-14T03:58:59.484Z,83.88
2018-12-14T04:01:30.216Z,83.64
2018-12-14T04:04:02.695Z,83.33
2018-12-14T04:06:35.226Z,83.35
2018-12-14T04:09:06.519Z,83.49
2018-12-14T04:11:37.594Z,83.64
2018-12-14T04:14:11.938Z,83.88
2018-12-14T04:16:42.345Z,83.94
2018-12-14T04:19:12.652Z,84.06
2018-12-14T04:21:45.622Z,84.22
2018-12-14T04:24:16.761Z,84.26
2018-12-14T04:26:47.093Z,84.15
2018-12-14T04:29:18.016Z,84.05
2018-12-14T04:31:50.250Z,83.80
2018-12-14T04:34:20.525Z,83.87
2018-12-14T04:36:50.753Z,83.86
2018-12-14T04:39:21.259Z,83.83
2018-12-14T04:41:51.812Z,83.87
2018-12-14T04:44:23.136Z,83.53
2018-12-14T04:46:53.378Z,83.31
2018-12-14T04:49:23.804Z,83.59
2018-12-14T04:51:54.258Z,83.59
2018-12-14T04:54:24.147Z,83.52
2018-12-14T04:56:54.474Z,83.52
2018-12-14T04:59:26.667Z,83.51
2018-12-14T05:01:57.499Z,83.48
2018-12-14T05:04:29.231Z,83.56
2018-12-14T05:07:05.577Z,83.63
2018-12-14T05:09:37.050Z,83.30
2018-12-14T05:12:07.564Z,83.28
2018-12-14T05:14:38.815Z,82.87
2018-12-14T05:17:09.467Z,82.50
2018-12-14T05:19:43.159Z,82.75
2018-12-14T05:22:13.609Z,82.67
2018-12-14T05:24:43.781Z,82.77
2018-12-14T05:27:18.038Z,82.59
2018-12-14T05:29:48.059Z,82.82
2018-12-14T05:32:18.159Z,82.84
2018-12-14T05:34:48.420Z,82.84
2018-12-14T05:37:18.720Z,82.88
2018-12-14T05:39:48.752Z,82.61
2018-12-14T05:42:19.691Z,82.53
2018-12-14T05:44:50.010Z,82.42
2018-12-14T05:47:39.519Z,82.33
2018-12-14T05:50:10.035Z,82.22
2018-12-14T05:52:40.234Z,81.77
2018-12-14T05:55:10.773Z,81.78
2018-12-14T05:57:41.723Z,81.47
2018-12-14T06:00:12.137Z,81.36
2018-12-14T06:02:41.693Z,81.37
2018-12-14T06:05:12.270Z,81.67
2018-12-14T06:07:42.877Z,81.68
2018-12-14T06:10:13.169Z,81.78
2018-12-14T06:12:45.595Z,81.84
2018-12-14T06:15:18.614Z,81.96
2018-12-14T06:17:48.637Z,82.21
2018-12-14T06:20:19.137Z,82.26
2018-12-14T06:22:48.929Z,82.25
2018-12-14T06:25:19.368Z,82.37
2018-12-14T06:27:55.471Z,82.32
2018-12-14T06:30:26.207Z,82.42
2018-12-14T06:32:56.398Z,82.37
2018-12-14T06:35:24.858Z,82.35
2018-12-14T06:37:58.129Z,82.43
2018-12-14T06:40:28.664Z,82.31
2018-12-14T06:42:58.515Z,83.20
2018-12-14T06:45:28.752Z,82.91
2018-12-14T06:48:03.219Z,83.30
2018-12-14T06:50:34.447Z,83.40
2018-12-14T06:53:08.729Z,83.32
2018-12-14T06:55:38.799Z,83.41
2018-12-14T06:58:08.778Z,83.38
2018-12-14T07:00:44.624Z,83.76
2018-12-14T07:03:15.112Z,83.25
2018-12-14T07:05:44.663Z,82.70
2018-12-14T07:08:14.893Z,82.57
2018-12-14T07:10:45.913Z,82.48
2018-12-14T07:13:21.852Z,82.63
2018-12-14T07:15:46.834Z,82.66
2018-12-14T07:18:16.946Z,82.72
2018-12-14T07:20:47.020Z,83.09
2018-12-14T07:23:28.270Z,83.26
2018-12-14T07:25:58.574Z,83.15
2018-12-14T07:28:29.529Z,83.02
2018-12-14T07:31:06.367Z,82.86
2018-12-14T07:33:38.711Z,83.05
2018-12-14T07:36:09.615Z,82.86
2018-12-14T07:38:39.540Z,82.87
2018-12-14T07:41:10.290Z,82.59
2018-12-14T07:43:41.061Z,83.04
2018-12-14T07:46:12.178Z,82.86
2018-12-14T07:48:43.436Z,82.29
2018-12-14T07:51:16.532Z,82.02
2018-12-14T07:53:47.212Z,82.06
2018-12-14T07:56:17.472Z,81.70
2018-12-14T07:58:50.468Z,80.98
2018-12-14T08:01:23.104Z,81.06
2018-12-14T08:03:57.525Z,79.95
2018-12-14T08:06:26.356Z,79.42
2018-12-14T08:08:57.508Z,79.36
2018-12-14T08:11:28.760Z,79.36
2018-12-14T08:14:02.766Z,78.98
2018-12-14T08:16:37.583Z,78.72
2018-12-14T08:19:10.705Z,78.70
2018-12-14T08:21:40.803Z,78.69
2018-12-14T08:24:12.996Z,78.51
2018-12-14T08:26:47.405Z,78.31
2018-12-14T08:29:23.305Z,77.95
2018-12-14T08:31:52.953Z,77.63
2018-12-14T08:34:23.813Z,77.63
2018-12-14T08:36:54.941Z,77.50
2018-12-14T08:39:31.257Z,77.65
2018-12-14T08:42:09.814Z,77.46
2018-12-14T08:44:42.094Z,76.99
2018-12-14T08:47:14.164Z,76.72
2018-12-14T08:49:45.385Z,77.62
2018-12-14T08:52:16.039Z,77.12
2018-12-14T08:54:49.963Z,77.47
2018-12-14T08:57:18.048Z,77.07
2018-12-14T08:59:53.535Z,76.81
2018-12-14T09:02:24.248Z,75.98
2018-12-14T09:04:54.822Z,75.84
2018-12-14T09:07:28.802Z,75.85
2018-12-14T09:10:00.026Z,75.62
2018-12-14T09:12:31.292Z,75.26
2018-12-14T09:15:07.971Z,75.42
2018-12-14T09:17:39.421Z,75.70
2018-12-14T09:20:12.162Z,75.66
2018-12-14T09:22:43.619Z,75.66
2018-12-14T09:25:14.639Z,75.95
2018-12-14T09:27:46.740Z,76.04
2018-12-14T09:30:18.157Z,75.65
2018-12-14T09:32:49.596Z,75.77
2018-12-14T09:35:19.475Z,75.73
2018-12-14T09:37:52.814Z,85.32
2018-12-14T09:40:23.561Z,79.64
2018-12-14T09:42:53.937Z,77.42
2018-12-14T09:45:27.968Z,75.19
2018-12-14T09:47:58.581Z,75.15
2018-12-14T09:50:30.727Z,74.18
2018-12-14T09:53:01.796Z,74.34
2018-12-14T09:55:32.522Z,74.49
2018-12-14T09:58:03.675Z,74.33
2018-12-14T10:00:33.373Z,73.55
2018-12-14T10:03:03.677Z,73.77
2018-12-14T10:05:38.143Z,76.56
2018-12-14T10:08:11.317Z,72.29
2018-12-14T10:10:41.792Z,70.97
2018-12-14T10:13:13.609Z,68.77
2018-12-14T10:15:47.209Z,67.86
2018-12-14T10:18:28.387Z,68.01
2018-12-14T10:20:59.267Z,67.92
2018-12-14T10:23:32.072Z,67.89
2018-12-14T10:26:03.459Z,68.17
2018-12-14T10:28:34.365Z,68.34
2018-12-14T10:31:05.186Z,68.33
2018-12-14T10:33:43.963Z,68.74
2018-12-14T10:36:15.250Z,68.80
2018-12-14T10:38:54.357Z,68.91
2018-12-14T10:41:34.116Z,68.95
2018-12-14T10:44:13.513Z,69.12
2018-12-14T10:46:47.505Z,69.51
2018-12-14T10:49:18.409Z,69.48
2018-12-14T10:51:55.199Z,69.77
2018-12-14T10:54:30.004Z,69.94
2018-12-14T10:57:04.595Z,70.28
2018-12-14T10:59:41.617Z,70.32
2018-12-14T11:02:17.247Z,70.72
2018-12-14T11:04:58.926Z,71.07
2018-12-14T11:07:33.145Z,71.13
2018-12-14T11:10:13.813Z,71.02
2018-12-14T11:12:45.770Z,70.98
2018-12-14T11:15:26.093Z,70.87
2018-12-14T11:17:50.297Z,70.94
2018-12-14T11:20:34.793Z,70.57
2018-12-14T11:23:11.387Z,70.45
2018-12-14T11:25:48.474Z,69.96
2018-12-14T11:28:24.037Z,69.48
2018-12-14T11:30:57.246Z,69.56
2018-12-14T11:33:30.781Z,69.48
2018-12-14T11:36:02.465Z,69.60
2018-12-14T11:38:40.048Z,69.68
2018-12-14T11:41:10.814Z,69.94
2018-12-14T11:43:45.068Z,70.09
2018-12-14T11:46:13.754Z,69.67
2018-12-14T11:48:44.277Z,69.81
2018-12-14T11:51:23.596Z,69.96
2018-12-14T11:54:00.139Z,69.73
2018-12-14T11:56:42.776Z,69.97
2018-12-14T11:59:17.717Z,70.01
2018-12-14T12:01:53.698Z,69.31
2018-12-14T12:04:29.761Z,68.60
2018-12-14T12:07:04.181Z,68.48
2018-12-14T12:09:38.075Z,68.81
2018-12-14T12:12:25.365Z,68.89
2018-12-14T12:15:00.356Z,68.83
2018-12-14T12:17:38.626Z,68.57
2018-12-14T12:20:18.790Z,68.02
2018-12-14T12:22:57.390Z,68.10
2018-12-14T12:25:44.133Z,68.24
2018-12-14T12:28:22.884Z,68.62
2018-12-14T12:30:56.466Z,68.14
2018-12-14T12:33:33.654Z,68.33
2018-12-14T12:36:14.400Z,68.37
2018-12-14T12:38:47.412Z,68.23
2018-12-14T12:41:23.060Z,68.55
2018-12-14T12:43:54.356Z,68.94
2018-12-14T12:46:28.589Z,69.35
2018-12-14T12:48:59.423Z,69.32
2018-12-14T12:51:31.371Z,69.74
2018-12-14T12:54:10.416Z,70.00
2018-12-14T12:56:44.668Z,70.50
2018-12-14T12:59:13.964Z,70.71
2018-12-14T13:01:45.504Z,71.18
2018-12-14T13:04:16.218Z,71.47
2018-12-14T13:06:53.406Z,71.79
2018-12-14T13:09:25.002Z,71.92
2018-12-14T13:11:55.913Z,71.92
2018-12-14T13:14:30.321Z,72.69
2018-12-14T13:17:03.380Z,72.00
2018-12-14T13:19:33.980Z,72.58
2018-12-14T13:22:05.804Z,72.53
2018-12-14T13:24:38.794Z,72.99
2018-12-14T13:27:20.115Z,73.36
2018-12-14T13:29:45.132Z,73.29
2018-12-14T13:32:18.544Z,73.03
2018-12-14T13:34:52.521Z,73.21
2018-12-14T13:37:23.166Z,73.44
2018-12-14T13:39:59.589Z,73.43
2018-12-14T13:42:28.852Z,73.35
2018-12-14T13:45:01.290Z,73.51
2018-12-14T13:47:32.088Z,73.79
2018-12-14T13:50:06.204Z,74.03
2018-12-14T13:52:45.342Z,74.18
2018-12-14T13:55:20.055Z,74.14
2018-12-14T13:57:56.319Z,74.33
2018-12-14T14:00:33.551Z,74.60
2018-12-14T14:03:06.388Z,74.49
2018-12-14T14:05:37.667Z,74.59
2018-12-14T14:08:15.393Z,74.58
2018-12-14T14:10:48.656Z,74.25
2018-12-14T14:13:23.653Z,74.22
2018-12-14T14:15:55.956Z,74.56
2018-12-14T14:18:31.126Z,74.71
2018-12-14T14:21:08.217Z,74.62
2018-12-14T14:23:41.018Z,74.44
2018-12-14T14:26:15.369Z,74.49
2018-12-14T14:28:48.885Z,74.80
2018-12-14T14:31:20.850Z,75.02
2018-12-14T14:33:52.828Z,74.96
2018-12-14T14:36:26.960Z,74.67
2018-12-14T14:38:55.939Z,74.76
2018-12-14T14:41:26.580Z,74.72
2018-12-14T14:43:57.626Z,74.50
2018-12-14T14:46:28.832Z,74.61
2018-12-14T14:49:01.512Z,74.64
2018-12-14T14:51:38.286Z,74.77
2018-12-14T14:54:19.666Z,74.77
2018-12-14T14:56:46.051Z,75.00
2018-12-14T14:59:16.119Z,75.13
2018-12-14T15:01:48.436Z,75.09
2018-12-14T15:04:24.706Z,75.11
2018-12-14T15:06:56.325Z,75.13
2018-12-14T15:09:30.130Z,75.22
2018-12-14T15:12:01.506Z,75.18
2018-12-14T15:14:56.517Z,75.25
2018-12-14T15:17:30.121Z,75.06
2018-12-14T15:20:04.514Z,75.03
2018-12-14T15:22:45.174Z,75.25
2018-12-14T15:25:19.530Z,75.31
2018-12-14T15:27:55.552Z,75.16
2018-12-14T15:30:38.479Z,75.29
2018-12-14T15:33:16.856Z,75.30
2018-12-14T15:35:53.081Z,75.07
2018-12-14T15:38:36.075Z,75.04
2018-12-14T15:41:13.764Z,74.77
2018-12-14T15:43:47.356Z,74.92
2018-12-14T15:46:23.104Z,74.88
2018-12-14T15:49:19.282Z,74.76
2018-12-14T15:51:38.389Z,74.87
2018-12-14T15:54:13.015Z,74.82
2018-12-14T15:56:58.543Z,74.83
2018-12-14T15:59:22.330Z,74.80
2018-12-14T16:01:57.470Z,74.70
2018-12-14T16:04:39.929Z,74.59
2018-12-14T16:07:22.606Z,74.67
2018-12-14T16:10:04.264Z,74.69
2018-12-14T16:12:43.768Z,74.31
2018-12-14T16:15:19.945Z,74.45
2018-12-14T16:17:55.230Z,74.45
2018-12-14T16:20:43.101Z,74.45
2018-12-14T16:23:18.777Z,74.33
2018-12-14T16:26:25.033Z,74.37
2018-12-14T16:28:47.915Z,74.38
2018-12-14T16:31:31.113Z,74.34
2018-12-14T16:34:01.255Z,74.50
2018-12-14T16:36:39.126Z,74.59
2018-12-14T16:39:10.153Z,74.69
2018-12-14T16:41:40.031Z,74.82
2018-12-14T16:44:10.930Z,75.04
2018-12-14T16:46:41.476Z,75.12
2018-12-14T16:49:12.036Z,75.23
2018-12-14T16:51:48.410Z,75.37
2018-12-14T16:54:19.769Z,75.48
2018-12-14T16:56:51.073Z,75.50
2018-12-14T16:59:21.353Z,75.60
2018-12-14T17:01:52.290Z,75.80
2018-12-14T17:04:22.325Z,75.89
2018-12-14T17:06:52.153Z,76.03
2018-12-14T17:09:22.881Z,76.03
2018-12-14T17:11:55.991Z,76.36
2018-12-14T17:14:26.153Z,76.29
2018-12-14T17:16:56.125Z,76.41
2018-12-14T17:19:25.841Z,76.54
2018-12-14T17:21:56.192Z,76.56
2018-12-14T17:24:26.369Z,76.27
2018-12-14T17:26:56.037Z,76.21
2018-12-14T17:29:30.511Z,76.00
2018-12-14T17:31:58.721Z,75.83
2018-12-14T17:34:28.835Z,75.90
2018-12-14T17:36:58.838Z,76.00
2018-12-14T17:39:30.465Z,75.99
2018-12-14T17:42:00.693Z,75.98
2018-12-14T17:44:31.322Z,75.92
2018-12-14T17:47:04.231Z,75.98
2018-12-14T17:49:37.968Z,75.87
2018-12-14T17:52:08.347Z,76.04
2018-12-14T17:54:41.068Z,76.15
2018-12-14T17:57:11.894Z,76.33
2018-12-14T17:59:42.385Z,76.48
2018-12-14T18:02:13.434Z,76.76
2018-12-14T18:04:44.320Z,76.95
2018-12-14T18:07:15.629Z,77.10
2018-12-14T18:09:54.015Z,77.21
2018-12-14T18:12:35.193Z,77.37
2018-12-14T18:15:04.742Z,77.56
2018-12-14T18:17:37.520Z,77.50
2018-12-14T18:20:09.991Z,77.76
2018-12-14T18:22:48.534Z,77.80
2018-12-14T18:25:22.300Z,78.02
2018-12-14T18:27:55.606Z,78.19
2018-12-14T18:30:27.328Z,78.30
2018-12-14T18:33:00.751Z,78.44
2018-12-14T18:35:35.229Z,78.57
2018-12-14T18:38:07.263Z,78.50
2018-12-14T18:40:39.920Z,78.46
2018-12-14T18:43:12.228Z,78.59
2018-12-14T18:45:53.349Z,78.57
2018-12-14T18:48:34.766Z,78.65
2018-12-14T18:51:07.357Z,78.56
2018-12-14T18:53:39.365Z,78.58
2018-12-14T18:56:12.772Z,78.60
2018-12-14T18:59:04.061Z,78.50
2018-12-14T19:01:36.640Z,78.64
2018-12-14T19:04:09.219Z,78.55
2018-12-14T19:06:48.315Z,78.62
2018-12-14T19:09:16.802Z,79.60
2018-12-14T19:11:51.772Z,79.82
2018-12-14T19:14:29.954Z,79.54
2018-12-14T19:17:05.981Z,83.68
2018-12-14T19:19:37.974Z,81.04
2018-12-14T19:22:08.362Z,80.00
2018-12-14T19:24:39.574Z,79.00
2018-12-14T19:27:10.378Z,88.05
2018-12-14T19:29:41.092Z,80.71
2018-12-14T19:32:16.844Z,79.48
2018-12-14T19:34:49.101Z,79.01
2018-12-14T19:37:26.786Z,78.32
2018-12-14T19:39:58.445Z,78.03
2018-12-14T19:42:32.354Z,77.65
2018-12-14T19:45:02.706Z,77.46
2018-12-14T19:47:33.920Z,77.36
2018-12-14T19:50:05.015Z,77.38
2018-12-14T19:52:36.370Z,77.38
2018-12-14T19:55:06.430Z,77.34
2018-12-14T19:57:36.956Z,77.30
2018-12-14T20:00:08.928Z,77.23
2018-12-14T20:02:40.828Z,76.94
2018-12-14T20:05:15.990Z,76.80
2018-12-14T20:07:46.923Z,76.71
2018-12-14T20:10:22.264Z,76.70
2018-12-14T20:12:53.521Z,76.75
2018-12-14T20:15:24.648Z,76.63
2018-12-14T20:17:56.729Z,76.53
2018-12-14T20:20:27.279Z,76.45
2018-12-14T20:22:57.409Z,76.50
2018-12-14T20:25:31.712Z,76.52
2018-12-14T20:28:02.400Z,76.42
2018-12-14T20:30:34.609Z,76.50
2018-12-14T20:33:05.438Z,76.48
2018-12-14T20:35:35.785Z,76.48
2018-12-14T20:38:07.946Z,76.25
2018-12-14T20:40:42.111Z,76.21
2018-12-14T20:43:13.209Z,76.38
2018-12-14T20:45:43.115Z,76.08
2018-12-14T20:48:15.445Z,76.22
2018-12-14T20:50:52.500Z,75.96
2018-12-14T20:53:26.827Z,75.90
2018-12-14T20:56:00.961Z,76.09
2018-12-14T20:58:30.843Z,76.06
2018-12-14T21:01:08.192Z,76.32
2018-12-14T21:03:38.787Z,76.32
2018-12-14T21:06:08.640Z,76.41
2018-12-14T21:08:38.887Z,76.39
2018-12-14T21:11:09.084Z,76.07
2018-12-14T21:13:42.316Z,76.03
2018-12-14T21:16:15.179Z,76.27
2018-12-14T21:18:44.074Z,76.33
2018-12-14T21:21:14.240Z,76.28
2018-12-14T21:23:44.423Z,76.50
2018-12-14T21:26:19.839Z,76.20
2018-12-14T21:28:54.424Z,76.31
2018-12-14T21:31:26.641Z,76.38
2018-12-14T21:34:03.719Z,76.29
2018-12-14T21:36:34.312Z,76.47
2018-12-14T21:39:05.571Z,76.58
2018-12-14T21:41:44.001Z,76.40
2018-12-14T21:44:16.068Z,76.54
2018-12-14T21:46:46.001Z,76.36
2018-12-14T21:49:16.420Z,76.49
2018-12-14T21:51:51.044Z,76.78
2018-12-14T21:54:24.005Z,76.70
2018-12-14T21:56:58.733Z,76.83
2018-12-14T21:59:31.872Z,76.62
2018-12-14T22:02:04.943Z,76.59
2018-12-14T22:04:34.387Z,76.81
2018-12-14T22:07:12.501Z,76.95
2018-12-14T22:09:44.468Z,77.26
2018-12-14T22:12:14.188Z,77.26
2018-12-14T22:14:44.316Z,77.19
2018-12-14T22:17:16.626Z,77.27
2018-12-14T22:19:48.894Z,77.32
2018-12-14T22:22:19.606Z,77.48
2018-12-14T22:24:49.848Z,77.58
2018-12-14T22:27:19.993Z,77.80
2018-12-14T22:29:50.725Z,77.79
2018-12-14T22:32:21.124Z,77.93
2018-12-14T22:34:51.877Z,78.00
2018-12-14T22:37:21.946Z,77.96
2018-12-14T22:39:51.917Z,77.87
2018-12-14T22:42:21.781Z,77.78
2018-12-14T22:44:56.914Z,77.83
2018-12-14T22:47:26.549Z,77.84
2018-12-14T22:49:57.148Z,77.99
2018-12-14T22:52:26.918Z,78.09
2018-12-14T22:54:56.985Z,78.09
2018-12-14T22:57:29.319Z,78.41
2018-12-14T23:00:02.261Z,78.43
2018-12-14T23:02:34.602Z,78.51
2018-12-14T23:05:13.912Z,78.59
2018-12-14T23:07:44.538Z,78.65
2018-12-14T23:10:15.939Z,78.74
2018-12-14T23:12:47.846Z,78.73
2018-12-14T23:15:18.992Z,78.99
2018-12-14T23:17:52.346Z,79.15
2018-12-14T23:20:23.357Z,79.28
2018-12-14T23:23:03.619Z,79.18
2018-12-14T23:25:36.512Z,79.33
2018-12-14T23:28:08.269Z,79.36
2018-12-14T23:30:37.989Z,79.46
2018-12-14T23:33:24.822Z,91.24
2018-12-14T23:35:56.464Z,87.77
2018-12-14T23:38:33.037Z,83.95
2018-12-14T23:41:03.153Z,83.99
2018-12-14T23:43:36.605Z,82.68
2018-12-14T23:46:06.545Z,81.84
2018-12-14T23:48:37.305Z,81.14
2018-12-14T23:51:07.224Z,80.78
2018-12-14T23:53:37.158Z,80.60
2018-12-14T23:56:06.755Z,80.60
2018-12-14T23:58:39.597Z,80.58
